sensor_id;sensor_type;location;lat;lon;timestamp;P1;durP1;ratioP1;P2;durP2;ratioP2
30818;SDS011;17546;42.674;23.284;2023-02-01T00:01:40;8.20;;;3.85;;
30818;SDS011;17546;42.674;23.284;2023-02-01T00:04:06;10.93;;;4.15;;
30818;SDS011;17546;42.674;23.284;2023-02-01T00:06:31;8.48;;;4.22;;
30818;SDS011;17546;42.674;23.284;2023-02-01T00:08:57;10.15;;;4.28;;
30818;SDS011;17546;42.674;23.284;2023-02-01T00:11:22;8.10;;;3.97;;
30818;SDS011;17546;42.674;23.284;2023-02-01T00:13:49;8.23;;;4.15;;
30818;SDS011;17546;42.674;23.284;2023-02-01T00:16:25;8.40;;;3.95;;
30818;SDS011;17546;42.674;23.284;2023-02-01T00:18:56;7.45;;;4.40;;
30818;SDS011;17546;42.674;23.284;2023-02-01T00:21:33;8.50;;;4.25;;
30818;SDS011;17546;42.674;23.284;2023-02-01T00:23:58;7.15;;;4.07;;
30818;SDS011;17546;42.674;23.284;2023-02-01T00:26:31;8.40;;;3.55;;
30818;SDS011;17546;42.674;23.284;2023-02-01T00:28:58;9.13;;;3.90;;
30818;SDS011;17546;42.674;23.284;2023-02-01T00:31:24;8.57;;;3.75;;
30818;SDS011;17546;42.674;23.284;2023-02-01T00:33:50;8.57;;;4.50;;
30818;SDS011;17546;42.674;23.284;2023-02-01T00:36:16;8.45;;;4.15;;
30818;SDS011;17546;42.674;23.284;2023-02-01T00:38:41;7.35;;;3.97;;
30818;SDS011;17546;42.674;23.284;2023-02-01T00:41:09;7.47;;;3.53;;
30818;SDS011;17546;42.674;23.284;2023-02-01T00:43:36;10.38;;;4.03;;
30818;SDS011;17546;42.674;23.284;2023-02-01T00:46:02;8.13;;;3.53;;
30818;SDS011;17546;42.674;23.284;2023-02-01T00:48:28;9.55;;;3.80;;
30818;SDS011;17546;42.674;23.284;2023-02-01T00:50:54;5.70;;;3.42;;
30818;SDS011;17546;42.674;23.284;2023-02-01T00:53:19;7.25;;;3.45;;
30818;SDS011;17546;42.674;23.284;2023-02-01T00:55:45;6.00;;;3.60;;
30818;SDS011;17546;42.674;23.284;2023-02-01T00:58:13;10.15;;;3.38;;
30818;SDS011;17546;42.674;23.284;2023-02-01T01:00:42;6.85;;;3.80;;
30818;SDS011;17546;42.674;23.284;2023-02-01T01:03:07;10.50;;;3.83;;
30818;SDS011;17546;42.674;23.284;2023-02-01T01:05:46;10.05;;;3.95;;
30818;SDS011;17546;42.674;23.284;2023-02-01T01:08:13;9.35;;;3.72;;
30818;SDS011;17546;42.674;23.284;2023-02-01T01:10:40;6.32;;;3.10;;
30818;SDS011;17546;42.674;23.284;2023-02-01T01:13:06;8.05;;;3.50;;
30818;SDS011;17546;42.674;23.284;2023-02-01T01:15:35;5.38;;;3.22;;
30818;SDS011;17546;42.674;23.284;2023-02-01T01:18:01;9.73;;;3.22;;
30818;SDS011;17546;42.674;23.284;2023-02-01T01:20:26;10.13;;;3.10;;
30818;SDS011;17546;42.674;23.284;2023-02-01T01:22:52;7.20;;;3.08;;
30818;SDS011;17546;42.674;23.284;2023-02-01T01:25:17;9.82;;;2.80;;
30818;SDS011;17546;42.674;23.284;2023-02-01T01:27:43;7.38;;;3.03;;
30818;SDS011;17546;42.674;23.284;2023-02-01T01:30:08;5.72;;;2.70;;
30818;SDS011;17546;42.674;23.284;2023-02-01T01:32:34;7.70;;;3.42;;
30818;SDS011;17546;42.674;23.284;2023-02-01T01:34:59;6.70;;;2.75;;
30818;SDS011;17546;42.674;23.284;2023-02-01T01:37:25;5.22;;;2.65;;
30818;SDS011;17546;42.674;23.284;2023-02-01T01:39:50;7.85;;;2.63;;
30818;SDS011;17546;42.674;23.284;2023-02-01T01:42:16;7.22;;;2.95;;
30818;SDS011;17546;42.674;23.284;2023-02-01T01:45:01;7.20;;;2.60;;
30818;SDS011;17546;42.674;23.284;2023-02-01T01:47:35;6.43;;;2.60;;
30818;SDS011;17546;42.674;23.284;2023-02-01T01:50:05;4.45;;;2.60;;
30818;SDS011;17546;42.674;23.284;2023-02-01T01:52:33;8.23;;;3.00;;
30818;SDS011;17546;42.674;23.284;2023-02-01T01:55:00;6.32;;;3.00;;
30818;SDS011;17546;42.674;23.284;2023-02-01T01:57:27;3.75;;;2.40;;
30818;SDS011;17546;42.674;23.284;2023-02-01T02:00:07;8.68;;;3.15;;
30818;SDS011;17546;42.674;23.284;2023-02-01T02:02:36;6.72;;;3.30;;
30818;SDS011;17546;42.674;23.284;2023-02-01T02:05:04;6.10;;;3.00;;
30818;SDS011;17546;42.674;23.284;2023-02-01T02:07:30;9.35;;;3.30;;
30818;SDS011;17546;42.674;23.284;2023-02-01T02:10:00;5.28;;;2.90;;
30818;SDS011;17546;42.674;23.284;2023-02-01T02:12:30;7.45;;;3.15;;
30818;SDS011;17546;42.674;23.284;2023-02-01T02:14:57;5.82;;;2.97;;
30818;SDS011;17546;42.674;23.284;2023-02-01T02:26:13;8.00;;;2.72;;
30818;SDS011;17546;42.674;23.284;2023-02-01T02:34:46;7.03;;;3.30;;
30818;SDS011;17546;42.674;23.284;2023-02-01T02:40:47;8.80;;;3.10;;
30818;SDS011;17546;42.674;23.284;2023-02-01T02:48:38;7.30;;;3.00;;
30818;SDS011;17546;42.674;23.284;2023-02-01T02:51:09;7.70;;;2.78;;
30818;SDS011;17546;42.674;23.284;2023-02-01T02:54:06;7.43;;;3.05;;
30818;SDS011;17546;42.674;23.284;2023-02-01T02:57:28;11.15;;;3.25;;
30818;SDS011;17546;42.674;23.284;2023-02-01T03:00:17;8.75;;;2.80;;
30818;SDS011;17546;42.674;23.284;2023-02-01T03:03:03;5.38;;;2.50;;
30818;SDS011;17546;42.674;23.284;2023-02-01T03:05:49;8.13;;;3.08;;
30818;SDS011;17546;42.674;23.284;2023-02-01T03:08:22;7.32;;;2.75;;
30818;SDS011;17546;42.674;23.284;2023-02-01T03:10:55;6.93;;;2.13;;
30818;SDS011;17546;42.674;23.284;2023-02-01T03:21:13;7.43;;;2.50;;
30818;SDS011;17546;42.674;23.284;2023-02-01T03:23:43;5.90;;;2.40;;
30818;SDS011;17546;42.674;23.284;2023-02-01T03:26:12;8.35;;;2.30;;
30818;SDS011;17546;42.674;23.284;2023-02-01T03:28:44;4.25;;;2.15;;
30818;SDS011;17546;42.674;23.284;2023-02-01T03:31:17;6.78;;;2.30;;
30818;SDS011;17546;42.674;23.284;2023-02-01T03:33:43;8.48;;;2.47;;
30818;SDS011;17546;42.674;23.284;2023-02-01T03:39:01;5.80;;;2.33;;
30818;SDS011;17546;42.674;23.284;2023-02-01T03:41:51;5.55;;;2.22;;
30818;SDS011;17546;42.674;23.284;2023-02-01T03:49:38;9.25;;;2.13;;
30818;SDS011;17546;42.674;23.284;2023-02-01T03:52:13;7.20;;;2.55;;
30818;SDS011;17546;42.674;23.284;2023-02-01T03:57:11;6.35;;;2.10;;
30818;SDS011;17546;42.674;23.284;2023-02-01T03:59:42;8.10;;;2.22;;
30818;SDS011;17546;42.674;23.284;2023-02-01T04:02:10;9.23;;;2.72;;
30818;SDS011;17546;42.674;23.284;2023-02-01T04:04:36;5.50;;;2.47;;
30818;SDS011;17546;42.674;23.284;2023-02-01T04:07:02;6.88;;;2.78;;
30818;SDS011;17546;42.674;23.284;2023-02-01T04:09:27;6.38;;;2.83;;
30818;SDS011;17546;42.674;23.284;2023-02-01T04:11:53;8.18;;;3.00;;
30818;SDS011;17546;42.674;23.284;2023-02-01T04:14:18;8.48;;;3.15;;
30818;SDS011;17546;42.674;23.284;2023-02-01T04:16:44;6.75;;;2.67;;
30818;SDS011;17546;42.674;23.284;2023-02-01T04:19:09;5.80;;;2.30;;
30818;SDS011;17546;42.674;23.284;2023-02-01T04:21:35;8.40;;;3.42;;
30818;SDS011;17546;42.674;23.284;2023-02-01T04:24:00;6.57;;;2.75;;
30818;SDS011;17546;42.674;23.284;2023-02-01T04:26:26;9.40;;;2.70;;
30818;SDS011;17546;42.674;23.284;2023-02-01T04:28:51;5.35;;;2.78;;
30818;SDS011;17546;42.674;23.284;2023-02-01T04:31:18;7.45;;;2.80;;
30818;SDS011;17546;42.674;23.284;2023-02-01T04:33:50;7.05;;;2.72;;
30818;SDS011;17546;42.674;23.284;2023-02-01T04:36:18;4.80;;;2.60;;
30818;SDS011;17546;42.674;23.284;2023-02-01T04:38:47;5.88;;;2.97;;
30818;SDS011;17546;42.674;23.284;2023-02-01T04:41:14;5.47;;;2.70;;
30818;SDS011;17546;42.674;23.284;2023-02-01T04:43:43;8.57;;;3.10;;
30818;SDS011;17546;42.674;23.284;2023-02-01T04:46:12;7.70;;;3.50;;
30818;SDS011;17546;42.674;23.284;2023-02-01T04:48:38;8.23;;;4.10;;
30818;SDS011;17546;42.674;23.284;2023-02-01T04:51:03;8.13;;;3.45;;
30818;SDS011;17546;42.674;23.284;2023-02-01T04:53:29;6.20;;;2.85;;
30818;SDS011;17546;42.674;23.284;2023-02-01T04:55:54;10.50;;;3.33;;
30818;SDS011;17546;42.674;23.284;2023-02-01T04:58:22;10.63;;;3.80;;
30818;SDS011;17546;42.674;23.284;2023-02-01T05:00:47;9.48;;;3.75;;
30818;SDS011;17546;42.674;23.284;2023-02-01T05:03:13;6.60;;;3.38;;
30818;SDS011;17546;42.674;23.284;2023-02-01T05:05:38;7.75;;;3.63;;
30818;SDS011;17546;42.674;23.284;2023-02-01T05:08:04;10.40;;;3.83;;
30818;SDS011;17546;42.674;23.284;2023-02-01T05:10:29;10.38;;;3.80;;
30818;SDS011;17546;42.674;23.284;2023-02-01T05:12:55;9.15;;;3.80;;
30818;SDS011;17546;42.674;23.284;2023-02-01T05:15:39;8.93;;;3.20;;
30818;SDS011;17546;42.674;23.284;2023-02-01T05:18:05;7.90;;;3.40;;
30818;SDS011;17546;42.674;23.284;2023-02-01T05:20:30;12.15;;;3.70;;
30818;SDS011;17546;42.674;23.284;2023-02-01T05:22:55;9.98;;;4.00;;
30818;SDS011;17546;42.674;23.284;2023-02-01T05:25:21;8.50;;;3.03;;
30818;SDS011;17546;42.674;23.284;2023-02-01T05:27:46;7.10;;;3.35;;
30818;SDS011;17546;42.674;23.284;2023-02-01T05:30:12;7.60;;;3.72;;
30818;SDS011;17546;42.674;23.284;2023-02-01T05:32:38;9.20;;;3.40;;
30818;SDS011;17546;42.674;23.284;2023-02-01T05:35:03;10.48;;;3.90;;
30818;SDS011;17546;42.674;23.284;2023-02-01T05:37:29;11.95;;;3.45;;
30818;SDS011;17546;42.674;23.284;2023-02-01T05:39:55;10.70;;;3.55;;
30818;SDS011;17546;42.674;23.284;2023-02-01T05:42:20;10.13;;;4.15;;
30818;SDS011;17546;42.674;23.284;2023-02-01T05:44:46;13.38;;;4.00;;
30818;SDS011;17546;42.674;23.284;2023-02-01T05:47:11;13.52;;;4.32;;
30818;SDS011;17546;42.674;23.284;2023-02-01T05:49:37;12.00;;;4.30;;
30818;SDS011;17546;42.674;23.284;2023-02-01T05:52:03;12.23;;;3.63;;
30818;SDS011;17546;42.674;23.284;2023-02-01T05:54:28;15.18;;;4.03;;
30818;SDS011;17546;42.674;23.284;2023-02-01T05:56:54;9.18;;;3.90;;
30818;SDS011;17546;42.674;23.284;2023-02-01T05:59:19;7.45;;;3.33;;
30818;SDS011;17546;42.674;23.284;2023-02-01T06:01:45;7.38;;;3.35;;
30818;SDS011;17546;42.674;23.284;2023-02-01T06:04:10;12.15;;;3.50;;
30818;SDS011;17546;42.674;23.284;2023-02-01T06:06:35;6.25;;;2.95;;
30818;SDS011;17546;42.674;23.284;2023-02-01T06:09:02;3.40;;;2.08;;
30818;SDS011;17546;42.674;23.284;2023-02-01T06:11:28;6.82;;;3.05;;
30818;SDS011;17546;42.674;23.284;2023-02-01T06:13:54;9.30;;;3.22;;
30818;SDS011;17546;42.674;23.284;2023-02-01T06:16:20;9.65;;;3.38;;
30818;SDS011;17546;42.674;23.284;2023-02-01T06:18:46;8.55;;;3.47;;
30818;SDS011;17546;42.674;23.284;2023-02-01T06:21:11;9.55;;;3.03;;
30818;SDS011;17546;42.674;23.284;2023-02-01T06:23:39;9.18;;;3.00;;
30818;SDS011;17546;42.674;23.284;2023-02-01T06:26:05;9.68;;;3.78;;
30818;SDS011;17546;42.674;23.284;2023-02-01T06:28:35;11.15;;;3.40;;
30818;SDS011;17546;42.674;23.284;2023-02-01T06:31:04;7.20;;;3.13;;
30818;SDS011;17546;42.674;23.284;2023-02-01T06:33:31;9.90;;;3.25;;
30818;SDS011;17546;42.674;23.284;2023-02-01T06:35:59;10.00;;;3.60;;
30818;SDS011;17546;42.674;23.284;2023-02-01T06:38:27;14.48;;;3.80;;
30818;SDS011;17546;42.674;23.284;2023-02-01T06:40:53;9.32;;;3.90;;
30818;SDS011;17546;42.674;23.284;2023-02-01T06:43:20;12.10;;;4.28;;
30818;SDS011;17546;42.674;23.284;2023-02-01T06:45:46;15.10;;;4.05;;
30818;SDS011;17546;42.674;23.284;2023-02-01T06:48:11;19.13;;;4.05;;
30818;SDS011;17546;42.674;23.284;2023-02-01T06:50:36;13.25;;;4.57;;
30818;SDS011;17546;42.674;23.284;2023-02-01T06:53:02;9.65;;;3.60;;
30818;SDS011;17546;42.674;23.284;2023-02-01T06:55:27;7.18;;;3.10;;
30818;SDS011;17546;42.674;23.284;2023-02-01T06:57:53;12.68;;;3.63;;
30818;SDS011;17546;42.674;23.284;2023-02-01T07:00:20;7.45;;;3.42;;
30818;SDS011;17546;42.674;23.284;2023-02-01T07:02:46;6.93;;;3.00;;
30818;SDS011;17546;42.674;23.284;2023-02-01T07:05:11;7.78;;;2.85;;
30818;SDS011;17546;42.674;23.284;2023-02-01T07:07:37;12.50;;;3.40;;
30818;SDS011;17546;42.674;23.284;2023-02-01T07:10:02;9.45;;;3.38;;
30818;SDS011;17546;42.674;23.284;2023-02-01T07:12:27;17.15;;;4.47;;
30818;SDS011;17546;42.674;23.284;2023-02-01T07:14:53;11.48;;;3.15;;
30818;SDS011;17546;42.674;23.284;2023-02-01T07:17:18;7.32;;;3.08;;
30818;SDS011;17546;42.674;23.284;2023-02-01T07:19:44;6.43;;;2.70;;
30818;SDS011;17546;42.674;23.284;2023-02-01T07:22:09;10.02;;;3.13;;
30818;SDS011;17546;42.674;23.284;2023-02-01T07:24:34;12.50;;;3.40;;
30818;SDS011;17546;42.674;23.284;2023-02-01T07:27:00;9.55;;;3.20;;
30818;SDS011;17546;42.674;23.284;2023-02-01T07:29:25;8.98;;;3.05;;
30818;SDS011;17546;42.674;23.284;2023-02-01T07:31:51;8.55;;;3.33;;
30818;SDS011;17546;42.674;23.284;2023-02-01T07:34:16;11.15;;;3.10;;
30818;SDS011;17546;42.674;23.284;2023-02-01T07:36:41;14.13;;;3.40;;
30818;SDS011;17546;42.674;23.284;2023-02-01T07:39:07;6.93;;;3.22;;
30818;SDS011;17546;42.674;23.284;2023-02-01T07:41:33;13.25;;;3.45;;
30818;SDS011;17546;42.674;23.284;2023-02-01T07:43:58;12.52;;;3.75;;
30818;SDS011;17546;42.674;23.284;2023-02-01T07:46:24;9.90;;;3.28;;
30818;SDS011;17546;42.674;23.284;2023-02-01T07:48:49;15.80;;;3.97;;
30818;SDS011;17546;42.674;23.284;2023-02-01T07:51:15;19.17;;;4.30;;
30818;SDS011;17546;42.674;23.284;2023-02-01T07:53:42;16.88;;;4.57;;
30818;SDS011;17546;42.674;23.284;2023-02-01T07:56:15;16.77;;;4.57;;
30818;SDS011;17546;42.674;23.284;2023-02-01T07:58:48;14.25;;;4.03;;
30818;SDS011;17546;42.674;23.284;2023-02-01T08:01:21;9.43;;;3.83;;
30818;SDS011;17546;42.674;23.284;2023-02-01T08:03:55;9.77;;;3.40;;
30818;SDS011;17546;42.674;23.284;2023-02-01T08:06:25;9.65;;;3.05;;
30818;SDS011;17546;42.674;23.284;2023-02-01T08:08:52;6.93;;;3.03;;
30818;SDS011;17546;42.674;23.284;2023-02-01T08:11:19;9.30;;;2.85;;
30818;SDS011;17546;42.674;23.284;2023-02-01T08:13:46;12.00;;;3.08;;
30818;SDS011;17546;42.674;23.284;2023-02-01T08:16:12;7.13;;;2.42;;
30818;SDS011;17546;42.674;23.284;2023-02-01T08:18:39;8.57;;;2.30;;
30818;SDS011;17546;42.674;23.284;2023-02-01T08:23:31;8.13;;;2.53;;
30818;SDS011;17546;42.674;23.284;2023-02-01T08:26:31;5.63;;;2.70;;
30818;SDS011;17546;42.674;23.284;2023-02-01T08:28:52;7.60;;;2.92;;
30818;SDS011;17546;42.674;23.284;2023-02-01T08:31:23;10.60;;;3.13;;
30818;SDS011;17546;42.674;23.284;2023-02-01T08:33:51;10.10;;;2.88;;
30818;SDS011;17546;42.674;23.284;2023-02-01T08:36:22;12.27;;;3.45;;
30818;SDS011;17546;42.674;23.284;2023-02-01T08:38:48;8.38;;;2.90;;
30818;SDS011;17546;42.674;23.284;2023-02-01T08:41:16;10.23;;;2.97;;
30818;SDS011;17546;42.674;23.284;2023-02-01T08:43:43;6.10;;;2.40;;
30818;SDS011;17546;42.674;23.284;2023-02-01T08:46:09;20.77;;;3.38;;
30818;SDS011;17546;42.674;23.284;2023-02-01T08:48:35;10.85;;;2.78;;
30818;SDS011;17546;42.674;23.284;2023-02-01T08:51:04;9.05;;;3.05;;
30818;SDS011;17546;42.674;23.284;2023-02-01T08:53:32;7.20;;;2.22;;
30818;SDS011;17546;42.674;23.284;2023-02-01T08:55:58;10.15;;;3.50;;
30818;SDS011;17546;42.674;23.284;2023-02-01T08:58:23;9.68;;;3.13;;
30818;SDS011;17546;42.674;23.284;2023-02-01T09:00:49;6.93;;;3.10;;
30818;SDS011;17546;42.674;23.284;2023-02-01T09:03:16;9.40;;;3.45;;
30818;SDS011;17546;42.674;23.284;2023-02-01T09:05:41;14.32;;;3.25;;
30818;SDS011;17546;42.674;23.284;2023-02-01T09:08:07;9.80;;;2.95;;
30818;SDS011;17546;42.674;23.284;2023-02-01T09:10:33;9.35;;;2.63;;
30818;SDS011;17546;42.674;23.284;2023-02-01T09:12:59;8.60;;;2.75;;
30818;SDS011;17546;42.674;23.284;2023-02-01T09:15:25;10.25;;;2.83;;
30818;SDS011;17546;42.674;23.284;2023-02-01T09:17:50;7.80;;;3.00;;
30818;SDS011;17546;42.674;23.284;2023-02-01T09:20:16;7.38;;;2.78;;
30818;SDS011;17546;42.674;23.284;2023-02-01T09:22:43;6.57;;;2.20;;
30818;SDS011;17546;42.674;23.284;2023-02-01T09:25:09;6.72;;;2.70;;
30818;SDS011;17546;42.674;23.284;2023-02-01T09:27:34;9.13;;;2.28;;
30818;SDS011;17546;42.674;23.284;2023-02-01T09:30:00;9.45;;;2.78;;
30818;SDS011;17546;42.674;23.284;2023-02-01T09:32:26;10.20;;;2.63;;
30818;SDS011;17546;42.674;23.284;2023-02-01T09:34:52;13.52;;;2.90;;
30818;SDS011;17546;42.674;23.284;2023-02-01T09:37:18;11.50;;;2.67;;
30818;SDS011;17546;42.674;23.284;2023-02-01T09:39:44;11.52;;;2.83;;
30818;SDS011;17546;42.674;23.284;2023-02-01T09:45:35;5.95;;;2.40;;
30818;SDS011;17546;42.674;23.284;2023-02-01T09:48:20;6.13;;;2.65;;
30818;SDS011;17546;42.674;23.284;2023-02-01T09:50:51;9.63;;;2.10;;
30818;SDS011;17546;42.674;23.284;2023-02-01T09:53:26;7.05;;;2.22;;
30818;SDS011;17546;42.674;23.284;2023-02-01T09:56:06;8.77;;;2.03;;
30818;SDS011;17546;42.674;23.284;2023-02-01T10:01:05;5.82;;;2.00;;
30818;SDS011;17546;42.674;23.284;2023-02-01T10:03:59;6.63;;;2.47;;
30818;SDS011;17546;42.674;23.284;2023-02-01T10:18:17;8.05;;;2.58;;
30818;SDS011;17546;42.674;23.284;2023-02-01T10:24:02;7.78;;;2.58;;
30818;SDS011;17546;42.674;23.284;2023-02-01T10:26:33;7.18;;;2.38;;
30818;SDS011;17546;42.674;23.284;2023-02-01T10:29:04;12.82;;;2.80;;
30818;SDS011;17546;42.674;23.284;2023-02-01T10:31:42;7.07;;;2.95;;
30818;SDS011;17546;42.674;23.284;2023-02-01T10:36:50;8.35;;;2.40;;
30818;SDS011;17546;42.674;23.284;2023-02-01T10:39:20;6.80;;;2.80;;
30818;SDS011;17546;42.674;23.284;2023-02-01T10:41:46;5.80;;;2.38;;
30818;SDS011;17546;42.674;23.284;2023-02-01T10:44:16;6.55;;;2.30;;
30818;SDS011;17546;42.674;23.284;2023-02-01T10:46:45;4.30;;;1.80;;
30818;SDS011;17546;42.674;23.284;2023-02-01T10:49:16;5.65;;;2.22;;
30818;SDS011;17546;42.674;23.284;2023-02-01T10:51:54;7.72;;;2.10;;
30818;SDS011;17546;42.674;23.284;2023-02-01T10:54:23;7.38;;;2.30;;
30818;SDS011;17546;42.674;23.284;2023-02-01T10:57:03;4.55;;;2.40;;
30818;SDS011;17546;42.674;23.284;2023-02-01T10:59:33;7.75;;;2.20;;
30818;SDS011;17546;42.674;23.284;2023-02-01T11:04:58;7.63;;;2.40;;
30818;SDS011;17546;42.674;23.284;2023-02-01T11:07:28;14.57;;;2.78;;
30818;SDS011;17546;42.674;23.284;2023-02-01T11:09:55;6.22;;;2.08;;
30818;SDS011;17546;42.674;23.284;2023-02-01T11:12:35;8.23;;;2.00;;
30818;SDS011;17546;42.674;23.284;2023-02-01T11:17:48;10.82;;;3.15;;
30818;SDS011;17546;42.674;23.284;2023-02-01T11:20:21;6.10;;;1.92;;
30818;SDS011;17546;42.674;23.284;2023-02-01T11:22:57;4.50;;;1.80;;
30818;SDS011;17546;42.674;23.284;2023-02-01T11:25:23;8.05;;;2.08;;
30818;SDS011;17546;42.674;23.284;2023-02-01T11:27:50;6.18;;;2.08;;
30818;SDS011;17546;42.674;23.284;2023-02-01T11:30:22;13.50;;;2.33;;
30818;SDS011;17546;42.674;23.284;2023-02-01T11:33:03;7.95;;;2.15;;
30818;SDS011;17546;42.674;23.284;2023-02-01T11:35:30;6.28;;;2.17;;
30818;SDS011;17546;42.674;23.284;2023-02-01T11:37:57;5.45;;;1.80;;
30818;SDS011;17546;42.674;23.284;2023-02-01T11:40:57;4.30;;;1.67;;
30818;SDS011;17546;42.674;23.284;2023-02-01T11:46:02;4.57;;;2.17;;
30818;SDS011;17546;42.674;23.284;2023-02-01T11:48:34;3.92;;;1.80;;
30818;SDS011;17546;42.674;23.284;2023-02-01T11:56:36;5.15;;;1.77;;
30818;SDS011;17546;42.674;23.284;2023-02-01T12:05:32;4.90;;;1.58;;
30818;SDS011;17546;42.674;23.284;2023-02-01T12:13:21;2.83;;;1.52;;
30818;SDS011;17546;42.674;23.284;2023-02-01T12:21:26;5.60;;;1.65;;
30818;SDS011;17546;42.674;23.284;2023-02-01T12:43:17;5.65;;;2.00;;
30818;SDS011;17546;42.674;23.284;2023-02-01T12:45:54;6.82;;;1.63;;
30818;SDS011;17546;42.674;23.284;2023-02-01T12:48:37;5.30;;;1.73;;
30818;SDS011;17546;42.674;23.284;2023-02-01T12:51:20;6.28;;;1.60;;
30818;SDS011;17546;42.674;23.284;2023-02-01T12:53:51;4.95;;;1.92;;
30818;SDS011;17546;42.674;23.284;2023-02-01T12:56:25;6.30;;;1.33;;
30818;SDS011;17546;42.674;23.284;2023-02-01T12:58:57;7.30;;;1.85;;
30818;SDS011;17546;42.674;23.284;2023-02-01T13:04:19;7.95;;;1.80;;
30818;SDS011;17546;42.674;23.284;2023-02-01T13:07:14;5.65;;;1.85;;
30818;SDS011;17546;42.674;23.284;2023-02-01T13:09:45;15.02;;;2.00;;
30818;SDS011;17546;42.674;23.284;2023-02-01T13:12:21;4.95;;;1.88;;
30818;SDS011;17546;42.674;23.284;2023-02-01T13:17:25;2.50;;;1.02;;
30818;SDS011;17546;42.674;23.284;2023-02-01T13:22:39;5.47;;;1.60;;
30818;SDS011;17546;42.674;23.284;2023-02-01T13:27:37;6.88;;;2.22;;
30818;SDS011;17546;42.674;23.284;2023-02-01T13:30:06;5.03;;;2.17;;
30818;SDS011;17546;42.674;23.284;2023-02-01T13:32:54;7.95;;;2.13;;
30818;SDS011;17546;42.674;23.284;2023-02-01T13:38:29;5.90;;;2.08;;
30818;SDS011;17546;42.674;23.284;2023-02-01T13:43:58;6.55;;;1.83;;
30818;SDS011;17546;42.674;23.284;2023-02-01T13:46:26;3.70;;;1.38;;
30818;SDS011;17546;42.674;23.284;2023-02-01T13:48:57;3.97;;;1.88;;
30818;SDS011;17546;42.674;23.284;2023-02-01T13:51:42;4.10;;;1.60;;
30818;SDS011;17546;42.674;23.284;2023-02-01T13:57:28;5.53;;;2.10;;
30818;SDS011;17546;42.674;23.284;2023-02-01T14:03:22;8.02;;;1.75;;
30818;SDS011;17546;42.674;23.284;2023-02-01T14:06:53;6.70;;;1.67;;
30818;SDS011;17546;42.674;23.284;2023-02-01T14:11:39;7.70;;;2.00;;
30818;SDS011;17546;42.674;23.284;2023-02-01T14:19:20;3.47;;;1.83;;
30818;SDS011;17546;42.674;23.284;2023-02-01T14:22:32;4.50;;;1.80;;
30818;SDS011;17546;42.674;23.284;2023-02-01T14:24:58;5.80;;;2.00;;
30818;SDS011;17546;42.674;23.284;2023-02-01T14:27:28;3.42;;;1.75;;
30818;SDS011;17546;42.674;23.284;2023-02-01T14:30:01;4.38;;;2.10;;
30818;SDS011;17546;42.674;23.284;2023-02-01T14:32:33;6.80;;;2.40;;
30818;SDS011;17546;42.674;23.284;2023-02-01T14:35:06;4.80;;;2.40;;
30818;SDS011;17546;42.674;23.284;2023-02-01T14:37:46;4.65;;;2.20;;
30818;SDS011;17546;42.674;23.284;2023-02-01T14:40:19;4.80;;;2.22;;
30818;SDS011;17546;42.674;23.284;2023-02-01T14:42:49;5.97;;;2.30;;
30818;SDS011;17546;42.674;23.284;2023-02-01T14:47:50;4.28;;;2.03;;
30818;SDS011;17546;42.674;23.284;2023-02-01T14:55:47;7.53;;;2.50;;
30818;SDS011;17546;42.674;23.284;2023-02-01T15:01:46;8.05;;;3.03;;
30818;SDS011;17546;42.674;23.284;2023-02-01T15:04:01;7.43;;;2.85;;
30818;SDS011;17546;42.674;23.284;2023-02-01T15:11:52;8.15;;;3.00;;
30818;SDS011;17546;42.674;23.284;2023-02-01T15:14:24;5.63;;;2.50;;
30818;SDS011;17546;42.674;23.284;2023-02-01T15:16:51;4.25;;;2.08;;
30818;SDS011;17546;42.674;23.284;2023-02-01T15:19:26;6.30;;;2.30;;
30818;SDS011;17546;42.674;23.284;2023-02-01T15:21:54;7.55;;;2.63;;
30818;SDS011;17546;42.674;23.284;2023-02-01T15:24:25;6.63;;;2.60;;
30818;SDS011;17546;42.674;23.284;2023-02-01T15:26:55;8.73;;;2.72;;
30818;SDS011;17546;42.674;23.284;2023-02-01T15:29:26;6.10;;;2.70;;
30818;SDS011;17546;42.674;23.284;2023-02-01T15:31:57;6.60;;;2.85;;
30818;SDS011;17546;42.674;23.284;2023-02-01T15:34:23;7.78;;;2.95;;
30818;SDS011;17546;42.674;23.284;2023-02-01T15:37:14;7.22;;;2.90;;
30818;SDS011;17546;42.674;23.284;2023-02-01T15:42:34;6.18;;;2.22;;
30818;SDS011;17546;42.674;23.284;2023-02-01T15:45:01;8.13;;;2.70;;
30818;SDS011;17546;42.674;23.284;2023-02-01T15:47:28;7.28;;;2.40;;
30818;SDS011;17546;42.674;23.284;2023-02-01T15:49:59;12.52;;;2.30;;
30818;SDS011;17546;42.674;23.284;2023-02-01T15:54:58;3.85;;;1.73;;
30818;SDS011;17546;42.674;23.284;2023-02-01T15:57:30;5.57;;;2.30;;
30818;SDS011;17546;42.674;23.284;2023-02-01T15:59:59;6.05;;;2.75;;
30818;SDS011;17546;42.674;23.284;2023-02-01T16:02:41;6.43;;;2.72;;
30818;SDS011;17546;42.674;23.284;2023-02-01T16:05:27;8.63;;;2.78;;
30818;SDS011;17546;42.674;23.284;2023-02-01T16:08:16;5.40;;;2.65;;
30818;SDS011;17546;42.674;23.284;2023-02-01T16:10:51;7.55;;;2.53;;
30818;SDS011;17546;42.674;23.284;2023-02-01T16:13:19;7.40;;;2.42;;
30818;SDS011;17546;42.674;23.284;2023-02-01T16:15:46;7.07;;;3.45;;
30818;SDS011;17546;42.674;23.284;2023-02-01T16:18:12;7.30;;;3.10;;
30818;SDS011;17546;42.674;23.284;2023-02-01T16:20:39;7.68;;;3.03;;
30818;SDS011;17546;42.674;23.284;2023-02-01T16:23:06;8.35;;;2.88;;
30818;SDS011;17546;42.674;23.284;2023-02-01T16:25:33;11.23;;;3.05;;
30818;SDS011;17546;42.674;23.284;2023-02-01T16:28:01;7.57;;;2.67;;
30818;SDS011;17546;42.674;23.284;2023-02-01T16:30:27;11.90;;;3.15;;
30818;SDS011;17546;42.674;23.284;2023-02-01T16:32:56;8.98;;;3.13;;
30818;SDS011;17546;42.674;23.284;2023-02-01T16:35:30;9.70;;;3.40;;
30818;SDS011;17546;42.674;23.284;2023-02-01T16:38:01;8.85;;;2.55;;
30818;SDS011;17546;42.674;23.284;2023-02-01T16:40:28;9.98;;;3.35;;
30818;SDS011;17546;42.674;23.284;2023-02-01T16:42:53;8.00;;;3.10;;
30818;SDS011;17546;42.674;23.284;2023-02-01T16:45:22;11.07;;;3.45;;
30818;SDS011;17546;42.674;23.284;2023-02-01T16:47:51;6.70;;;3.30;;
30818;SDS011;17546;42.674;23.284;2023-02-01T16:50:23;9.10;;;3.70;;
30818;SDS011;17546;42.674;23.284;2023-02-01T16:52:51;14.48;;;4.38;;
30818;SDS011;17546;42.674;23.284;2023-02-01T16:55:18;13.35;;;4.22;;
30818;SDS011;17546;42.674;23.284;2023-02-01T16:57:46;13.02;;;5.85;;
30818;SDS011;17546;42.674;23.284;2023-02-01T17:00:12;10.80;;;4.03;;
30818;SDS011;17546;42.674;23.284;2023-02-01T17:02:40;8.02;;;3.95;;
30818;SDS011;17546;42.674;23.284;2023-02-01T17:05:07;9.27;;;4.25;;
30818;SDS011;17546;42.674;23.284;2023-02-01T17:07:34;12.30;;;3.58;;
30818;SDS011;17546;42.674;23.284;2023-02-01T17:10:00;12.07;;;4.00;;
30818;SDS011;17546;42.674;23.284;2023-02-01T17:12:28;11.10;;;3.70;;
30818;SDS011;17546;42.674;23.284;2023-02-01T17:14:56;8.32;;;3.88;;
30818;SDS011;17546;42.674;23.284;2023-02-01T17:17:23;8.65;;;3.85;;
30818;SDS011;17546;42.674;23.284;2023-02-01T17:19:53;7.45;;;3.75;;
30818;SDS011;17546;42.674;23.284;2023-02-01T17:22:19;9.98;;;4.50;;
30818;SDS011;17546;42.674;23.284;2023-02-01T17:24:45;9.20;;;3.60;;
30818;SDS011;17546;42.674;23.284;2023-02-01T17:27:11;8.65;;;3.95;;
30818;SDS011;17546;42.674;23.284;2023-02-01T17:29:37;9.07;;;3.78;;
30818;SDS011;17546;42.674;23.284;2023-02-01T17:32:05;7.43;;;3.60;;
30818;SDS011;17546;42.674;23.284;2023-02-01T17:34:32;7.30;;;3.33;;
30818;SDS011;17546;42.674;23.284;2023-02-01T17:36:57;5.68;;;2.55;;